Aérodrome :
LOGIN :

S'inscrire | Disclaimer

   EN    FR    IT 

 










Légende :    VFR   VFR Marginal   IFR   IFR Intensif   IFR Très Intensif
Visi : 
Plafond : 
>= 8 km
>= 3000ft
5 à 8 km
1000 à 3000 ft
1500m à 5 km
500 à 1000 ft
800 à 1500m
200 à 500 ft
< 800m
< 200 ft
Symboles :   Orages  Brouillard  Fortes neiges  Fortes précipitations  Vent > 20 kt
SIGMETs :   Divers  Orages  Givrage  Turbulence  Onde Orograph.  Cendres Volcan.







- Altitude de l'aérodrome : 348 ft
- Code IATA : STN
- Voir les cartes d'approche


EGSS - London Stansted

METARs EXPIRÉS :
  • 241420Z AUTO 24011KT 220V280 9999 BKN030 23/15 Q1012
  • 241350Z AUTO 24013KT 9999 BKN033 BKN042 22/14 Q1012
  • 241320Z AUTO 23013KT 9999 BKN035 BKN049 22/14 Q1012
  • 241250Z AUTO 24012KT 9999 SCT032 BKN048 23/14 Q1013
  • 241220Z AUTO 23012KT 190V250 9999 SCT031 SCT042 23/14 Q1013
  • 241150Z AUTO 26010KT 9999 BKN030 BKN044 21/14 Q1013

Prévision TAF périmée.
ATIS : +44 1279 669 325
Pas de NOTAMs connus pour ce terrain.



MET'MAP, la Météo Aéronautique d'un coup d'oeil ! - Copyright ORBIFLY Décembre 2007 - Disclaimer

ORBIFLY MET'MAP TEAM :

Programmation & Développement : Alexandra Zaïnal
Conception & Développement : Baudouin d'Aumeries
Co-Programmation & Développement : Marc-Olivier Méhu
Soutien technique & logistique : Manuel Goepfert

Contact : metmap@orbifly.com




SOURCES & CREDITS :

   NOAA